ZSJRH FAGC-FAPE
Flight info
| Callsign | ZSJRH |
|---|---|
| Flight time | 1h 47m |
| Altitude | 16000 |
| Route | FAGM DCT GAV UW95 WMV DCT BLV UW81 HMV |
| Aircraft | PC12/L-SDFGRWY/S |
Departure
| Time | 2026-05-05 06:00 |
|---|---|
| Airport | Grand Central Airport (FAGC) |
Arrival
| Time | 2026-05-05 07:48 |
|---|---|
| Airport | Chief Dawid Stuurman International Airport (FAPE) |
| Time | Latitude | Longitude | Altitude | Speed | Heading |
|---|---|---|---|---|---|
| 2026-05-05 05:55 | -25.98774 | 28.14007 | 5329 ft | 0 kts | 220° |
| 2026-05-05 05:58 | -25.98789 | 28.14015 | 5327 ft | 8 kts | 108° |
| 2026-05-05 05:58 | -25.98717 | 28.13998 | 5346 ft | 19 kts | 332° |
| 2026-05-05 05:58 | -25.98587 | 28.13925 | 5337 ft | 22 kts | 335° |
| 2026-05-05 05:59 | -25.98435 | 28.13836 | 5328 ft | 18 kts | 333° |
| 2026-05-05 05:59 | -25.98329 | 28.13806 | 5322 ft | 6 kts | 41° |
| 2026-05-05 05:59 | -25.98328 | 28.13807 | 5322 ft | 0 kts | 44° |
| 2026-05-05 05:59 | -25.98331 | 28.13836 | 5323 ft | 10 kts | 140° |
| 2026-05-05 06:00 | -25.98535 | 28.13953 | 5335 ft | 60 kts | 152° |
| 2026-05-05 06:00 | -25.99043 | 28.14242 | 5367 ft | 100 kts | 153° |
| 2026-05-05 06:00 | -25.99721 | 28.14581 | 5598 ft | 105 kts | 159° |
| 2026-05-05 06:00 | -26.00378 | 28.14877 | 6001 ft | 105 kts | 157° |
| 2026-05-05 06:01 | -26.01127 | 28.15228 | 6232 ft | 129 kts | 157° |
| 2026-05-05 06:01 | -26.01973 | 28.15660 | 6604 ft | 147 kts | 158° |
| 2026-05-05 06:01 | -26.03128 | 28.15949 | 6605 ft | 187 kts | 192° |
| 2026-05-05 06:01 | -26.04247 | 28.15458 | 7356 ft | 166 kts | 215° |
| 2026-05-05 06:02 | -26.05280 | 28.14988 | 8158 ft | 157 kts | 206° |
| 2026-05-05 06:02 | -26.06323 | 28.14723 | 8868 ft | 152 kts | 199° |
| 2026-05-05 06:02 | -26.07356 | 28.14594 | 9523 ft | 147 kts | 195° |
| 2026-05-05 06:02 | -26.08366 | 28.14551 | 10153 ft | 144 kts | 193° |
| 2026-05-05 06:03 | -26.09366 | 28.14547 | 10656 ft | 144 kts | 192° |
| 2026-05-05 06:03 | -26.10368 | 28.14566 | 11160 ft | 144 kts | 190° |
| 2026-05-05 06:03 | -26.11373 | 28.14600 | 11649 ft | 145 kts | 189° |
| 2026-05-05 06:03 | -26.12385 | 28.14637 | 12131 ft | 145 kts | 190° |
| 2026-05-05 06:04 | -26.13395 | 28.14677 | 12641 ft | 146 kts | 189° |
| 2026-05-05 06:04 | -26.14412 | 28.14718 | 13146 ft | 147 kts | 189° |
| 2026-05-05 06:04 | -26.15440 | 28.14761 | 13658 ft | 148 kts | 189° |
| 2026-05-05 06:04 | -26.16467 | 28.14806 | 14149 ft | 148 kts | 189° |
| 2026-05-05 06:05 | -26.17501 | 28.14848 | 14567 ft | 150 kts | 189° |
| 2026-05-05 06:05 | -26.18549 | 28.14893 | 15000 ft | 151 kts | 189° |
| 2026-05-05 06:05 | -26.19603 | 28.14936 | 15424 ft | 153 kts | 190° |
| 2026-05-05 06:05 | -26.20678 | 28.14982 | 15826 ft | 155 kts | 190° |
| 2026-05-05 06:06 | -26.21770 | 28.15028 | 16121 ft | 167 kts | 190° |
| 2026-05-05 06:06 | -26.23035 | 28.15017 | 16173 ft | 193 kts | 196° |
| 2026-05-05 06:06 | -26.24309 | 28.14485 | 16213 ft | 201 kts | 226° |
| 2026-05-05 06:06 | -26.24979 | 28.13758 | 16230 ft | 206 kts | 242° |
| 2026-05-05 06:07 | -26.26055 | 28.11901 | 16233 ft | 226 kts | 246° |
| 2026-05-05 06:07 | -26.26926 | 28.10374 | 16227 ft | 242 kts | 245° |
| 2026-05-05 06:07 | -26.27856 | 28.08753 | 16214 ft | 254 kts | 245° |
| 2026-05-05 06:07 | -26.28827 | 28.07070 | 16203 ft | 262 kts | 245° |
| 2026-05-05 06:08 | -26.29824 | 28.05346 | 16188 ft | 267 kts | 245° |
| 2026-05-05 06:08 | -26.30837 | 28.03592 | 16182 ft | 270 kts | 245° |
| 2026-05-05 06:08 | -26.31859 | 28.01825 | 16160 ft | 272 kts | 245° |
| 2026-05-05 06:08 | -26.32886 | 28.00044 | 16147 ft | 273 kts | 245° |
| 2026-05-05 06:09 | -26.33914 | 27.98265 | 16141 ft | 273 kts | 245° |
| 2026-05-05 06:09 | -26.34941 | 27.96482 | 16140 ft | 273 kts | 245° |
| 2026-05-05 06:09 | -26.35970 | 27.94694 | 16140 ft | 273 kts | 245° |
| 2026-05-05 06:09 | -26.36997 | 27.92911 | 16129 ft | 273 kts | 245° |
| 2026-05-05 06:10 | -26.38022 | 27.91129 | 16107 ft | 273 kts | 245° |
| 2026-05-05 06:10 | -26.39044 | 27.89350 | 16123 ft | 272 kts | 245° |
| 2026-05-05 06:10 | -26.40054 | 27.87589 | 16125 ft | 272 kts | 245° |
| 2026-05-05 06:10 | -26.41079 | 27.85804 | 16126 ft | 273 kts | 245° |
| 2026-05-05 06:11 | -26.42103 | 27.84022 | 16125 ft | 273 kts | 245° |
| 2026-05-05 06:11 | -26.43125 | 27.82237 | 16125 ft | 273 kts | 245° |
| 2026-05-05 06:11 | -26.44149 | 27.80452 | 16125 ft | 273 kts | 245° |
| 2026-05-05 06:11 | -26.45172 | 27.78664 | 16124 ft | 273 kts | 245° |
| 2026-05-05 06:12 | -26.46199 | 27.76873 | 16123 ft | 273 kts | 245° |
| 2026-05-05 06:12 | -26.47223 | 27.75085 | 16115 ft | 273 kts | 245° |
| 2026-05-05 06:12 | -26.48249 | 27.73292 | 16113 ft | 273 kts | 245° |
| 2026-05-05 06:12 | -26.49273 | 27.71503 | 16113 ft | 273 kts | 245° |
| 2026-05-05 06:13 | -26.50296 | 27.69715 | 16103 ft | 273 kts | 245° |
| 2026-05-05 06:13 | -26.51415 | 27.67989 | 16098 ft | 279 kts | 235° |
| 2026-05-05 06:13 | -26.52981 | 27.66644 | 16090 ft | 292 kts | 216° |
| 2026-05-05 06:13 | -26.54754 | 27.65613 | 16097 ft | 290 kts | 217° |
| 2026-05-05 06:14 | -26.56480 | 27.64460 | 16105 ft | 289 kts | 220° |
| 2026-05-05 06:14 | -26.57627 | 27.63656 | 16108 ft | 289 kts | 220° |
| 2026-05-05 06:14 | -26.59751 | 27.62162 | 16108 ft | 290 kts | 220° |
| 2026-05-05 06:14 | -26.61126 | 27.61204 | 16099 ft | 290 kts | 220° |
| 2026-05-05 06:15 | -26.62649 | 27.60154 | 16097 ft | 290 kts | 219° |
| 2026-05-05 06:15 | -26.64069 | 27.59183 | 16092 ft | 291 kts | 219° |
| 2026-05-05 06:15 | -26.65555 | 27.58172 | 16094 ft | 291 kts | 219° |
| 2026-05-05 06:15 | -26.67041 | 27.57164 | 16097 ft | 291 kts | 219° |
| 2026-05-05 06:16 | -26.68605 | 27.56106 | 16106 ft | 292 kts | 219° |
| 2026-05-05 06:16 | -26.70321 | 27.54947 | 16099 ft | 292 kts | 219° |
| 2026-05-05 06:16 | -26.72086 | 27.53755 | 16095 ft | 293 kts | 219° |
| 2026-05-05 06:16 | -26.73806 | 27.52594 | 16091 ft | 293 kts | 219° |
| 2026-05-05 06:17 | -26.75552 | 27.51415 | 16092 ft | 293 kts | 219° |
| 2026-05-05 06:17 | -26.77300 | 27.50234 | 16093 ft | 293 kts | 219° |
| 2026-05-05 06:17 | -26.79045 | 27.49055 | 16091 ft | 293 kts | 219° |
| 2026-05-05 06:17 | -26.80785 | 27.47879 | 16079 ft | 292 kts | 219° |
| 2026-05-05 06:18 | -26.82529 | 27.46699 | 16086 ft | 292 kts | 219° |
| 2026-05-05 06:18 | -26.84271 | 27.45519 | 16081 ft | 293 kts | 219° |
| 2026-05-05 06:18 | -26.86016 | 27.44337 | 16066 ft | 293 kts | 219° |
| 2026-05-05 06:18 | -26.87760 | 27.43156 | 16071 ft | 293 kts | 219° |
| 2026-05-05 06:19 | -26.89508 | 27.41973 | 16072 ft | 293 kts | 219° |
| 2026-05-05 06:19 | -26.91253 | 27.40790 | 16075 ft | 293 kts | 219° |
| 2026-05-05 06:19 | -26.93002 | 27.39605 | 16079 ft | 293 kts | 219° |
| 2026-05-05 06:19 | -26.94744 | 27.38423 | 16081 ft | 293 kts | 219° |
| 2026-05-05 06:20 | -26.96492 | 27.37237 | 16081 ft | 294 kts | 219° |
| 2026-05-05 06:20 | -26.98240 | 27.36050 | 16084 ft | 294 kts | 219° |
| 2026-05-05 06:20 | -26.99991 | 27.34861 | 16092 ft | 294 kts | 219° |
| 2026-05-05 06:20 | -27.01747 | 27.33669 | 16087 ft | 294 kts | 219° |
| 2026-05-05 06:21 | -27.03493 | 27.32482 | 16077 ft | 294 kts | 219° |
| 2026-05-05 06:21 | -27.05219 | 27.31310 | 16081 ft | 294 kts | 219° |
| 2026-05-05 06:21 | -27.06945 | 27.30136 | 16085 ft | 294 kts | 219° |
| 2026-05-05 06:21 | -27.08696 | 27.28945 | 16081 ft | 294 kts | 219° |
| 2026-05-05 06:22 | -27.10451 | 27.27751 | 16082 ft | 294 kts | 219° |
| 2026-05-05 06:22 | -27.12200 | 27.26561 | 16076 ft | 294 kts | 219° |
| 2026-05-05 06:22 | -27.13949 | 27.25371 | 16076 ft | 293 kts | 219° |
| 2026-05-05 06:22 | -27.15688 | 27.24186 | 16077 ft | 292 kts | 219° |
| 2026-05-05 06:23 | -27.17427 | 27.23002 | 16074 ft | 291 kts | 219° |
| 2026-05-05 06:23 | -27.19134 | 27.21839 | 16075 ft | 290 kts | 219° |
| 2026-05-05 06:23 | -27.20857 | 27.20663 | 16079 ft | 289 kts | 219° |
| 2026-05-05 06:23 | -27.22019 | 27.19871 | 16074 ft | 289 kts | 219° |
| 2026-05-05 06:24 | -27.24288 | 27.18324 | 16070 ft | 288 kts | 219° |
| 2026-05-05 06:24 | -27.25443 | 27.17534 | 16068 ft | 287 kts | 219° |
| 2026-05-05 06:24 | -27.27706 | 27.15988 | 16075 ft | 288 kts | 219° |
| 2026-05-05 06:24 | -27.28841 | 27.15211 | 16075 ft | 288 kts | 219° |
| 2026-05-05 06:25 | -27.31131 | 27.13646 | 16088 ft | 288 kts | 219° |
| 2026-05-05 06:25 | -27.32265 | 27.12870 | 16090 ft | 288 kts | 219° |
| 2026-05-05 06:25 | -27.34547 | 27.11310 | 16079 ft | 287 kts | 219° |
| 2026-05-05 06:25 | -27.35673 | 27.10541 | 16073 ft | 286 kts | 219° |
| 2026-05-05 06:26 | -27.37956 | 27.08978 | 16071 ft | 286 kts | 219° |
| 2026-05-05 06:26 | -27.39081 | 27.08208 | 16068 ft | 287 kts | 219° |
| 2026-05-05 06:26 | -27.41370 | 27.06637 | 16118 ft | 288 kts | 219° |
| 2026-05-05 06:26 | -27.42509 | 27.05856 | 16177 ft | 290 kts | 219° |
| 2026-05-05 06:27 | -27.44800 | 27.04281 | 16266 ft | 293 kts | 220° |
| 2026-05-05 06:27 | -27.48316 | 27.01869 | 16208 ft | 297 kts | 219° |
| 2026-05-05 06:27 | -27.49488 | 27.01065 | 16187 ft | 296 kts | 219° |
| 2026-05-05 06:28 | -27.51839 | 26.99457 | 16120 ft | 294 kts | 219° |
| 2026-05-05 06:28 | -27.52992 | 26.98666 | 16091 ft | 293 kts | 219° |
| 2026-05-05 06:28 | -27.55317 | 26.97073 | 16068 ft | 291 kts | 219° |
| 2026-05-05 06:28 | -27.56462 | 26.96286 | 16065 ft | 291 kts | 219° |
| 2026-05-05 06:29 | -27.58751 | 26.94712 | 16061 ft | 291 kts | 219° |
| 2026-05-05 06:29 | -27.59914 | 26.93911 | 16060 ft | 291 kts | 219° |
| 2026-05-05 06:29 | -27.62206 | 26.92333 | 16064 ft | 291 kts | 219° |
| 2026-05-05 06:29 | -27.63377 | 26.91526 | 16062 ft | 292 kts | 219° |
| 2026-05-05 06:30 | -27.65671 | 26.89945 | 16060 ft | 292 kts | 219° |
| 2026-05-05 06:30 | -27.66821 | 26.89152 | 16059 ft | 292 kts | 220° |
| 2026-05-05 06:30 | -27.69141 | 26.87554 | 16059 ft | 292 kts | 219° |
| 2026-05-05 06:30 | -27.70310 | 26.86748 | 16068 ft | 292 kts | 219° |
| 2026-05-05 06:31 | -27.72619 | 26.85156 | 16050 ft | 293 kts | 219° |
| 2026-05-05 06:31 | -27.73772 | 26.84361 | 16045 ft | 293 kts | 219° |
| 2026-05-05 06:31 | -27.76104 | 26.82752 | 16046 ft | 293 kts | 219° |
| 2026-05-05 06:31 | -27.77258 | 26.81955 | 16046 ft | 293 kts | 219° |
| 2026-05-05 06:32 | -27.79588 | 26.80347 | 16043 ft | 293 kts | 219° |
| 2026-05-05 06:32 | -27.80742 | 26.79549 | 16042 ft | 293 kts | 219° |
| 2026-05-05 06:32 | -27.83071 | 26.77939 | 16046 ft | 294 kts | 219° |
| 2026-05-05 06:32 | -27.84226 | 26.77140 | 16044 ft | 294 kts | 219° |
| 2026-05-05 06:33 | -27.86557 | 26.75528 | 16042 ft | 294 kts | 219° |
| 2026-05-05 06:33 | -27.87709 | 26.74731 | 16034 ft | 294 kts | 219° |
| 2026-05-05 06:33 | -27.90020 | 26.73132 | 16038 ft | 294 kts | 219° |
| 2026-05-05 06:33 | -27.91199 | 26.72315 | 16035 ft | 294 kts | 219° |
| 2026-05-05 06:34 | -27.93510 | 26.70714 | 16043 ft | 294 kts | 219° |
| 2026-05-05 06:34 | -27.94685 | 26.69900 | 16039 ft | 294 kts | 219° |
| 2026-05-05 06:34 | -27.96995 | 26.68298 | 16034 ft | 294 kts | 219° |
| 2026-05-05 06:34 | -27.98149 | 26.67499 | 16032 ft | 293 kts | 219° |
| 2026-05-05 06:35 | -28.00573 | 26.66053 | 16029 ft | 298 kts | 210° |
| 2026-05-05 06:35 | -28.01887 | 26.65554 | 16025 ft | 303 kts | 202° |
| 2026-05-05 06:35 | -28.04617 | 26.64774 | 16029 ft | 301 kts | 202° |
| 2026-05-05 06:35 | -28.05945 | 26.64339 | 16030 ft | 300 kts | 204° |
| 2026-05-05 06:36 | -28.08626 | 26.63431 | 16026 ft | 300 kts | 204° |
| 2026-05-05 06:36 | -28.09953 | 26.62981 | 16027 ft | 301 kts | 204° |
| 2026-05-05 06:36 | -28.12639 | 26.62079 | 16027 ft | 302 kts | 204° |
| 2026-05-05 06:36 | -28.13978 | 26.61634 | 16027 ft | 302 kts | 203° |
| 2026-05-05 06:37 | -28.16660 | 26.60751 | 16029 ft | 303 kts | 203° |
| 2026-05-05 06:37 | -28.18004 | 26.60311 | 16028 ft | 303 kts | 203° |
| 2026-05-05 06:37 | -28.20724 | 26.59423 | 16027 ft | 304 kts | 203° |
| 2026-05-05 06:37 | -28.22066 | 26.58984 | 16037 ft | 304 kts | 203° |
| 2026-05-05 06:38 | -28.24793 | 26.58096 | 16031 ft | 304 kts | 203° |
| 2026-05-05 06:38 | -28.26141 | 26.57656 | 16032 ft | 304 kts | 203° |
| 2026-05-05 06:38 | -28.28837 | 26.56777 | 16031 ft | 304 kts | 203° |
| 2026-05-05 06:38 | -28.30213 | 26.56328 | 16050 ft | 304 kts | 203° |
| 2026-05-05 06:39 | -28.32918 | 26.55444 | 16033 ft | 306 kts | 203° |
| 2026-05-05 06:39 | -28.34297 | 26.54993 | 16033 ft | 306 kts | 203° |
| 2026-05-05 06:39 | -28.36344 | 26.54324 | 16035 ft | 306 kts | 203° |
| 2026-05-05 06:39 | -28.38392 | 26.53655 | 16037 ft | 306 kts | 203° |
| 2026-05-05 06:40 | -28.41112 | 26.52766 | 16032 ft | 307 kts | 203° |
| 2026-05-05 06:40 | -28.42472 | 26.52321 | 16031 ft | 307 kts | 204° |
| 2026-05-05 06:40 | -28.44518 | 26.51651 | 16035 ft | 307 kts | 204° |
| 2026-05-05 06:40 | -28.46578 | 26.50978 | 16035 ft | 307 kts | 204° |
| 2026-05-05 06:41 | -28.48629 | 26.50306 | 16036 ft | 307 kts | 204° |
| 2026-05-05 06:41 | -28.50682 | 26.49632 | 16033 ft | 307 kts | 203° |
| 2026-05-05 06:41 | -28.52740 | 26.48959 | 16029 ft | 307 kts | 203° |
| 2026-05-05 06:41 | -28.54793 | 26.48286 | 16026 ft | 307 kts | 204° |
| 2026-05-05 06:42 | -28.56845 | 26.47613 | 16031 ft | 307 kts | 204° |
| 2026-05-05 06:42 | -28.58901 | 26.46939 | 16031 ft | 307 kts | 204° |
| 2026-05-05 06:42 | -28.60924 | 26.46273 | 16027 ft | 307 kts | 204° |
| 2026-05-05 06:42 | -28.62975 | 26.45599 | 16028 ft | 307 kts | 204° |
| 2026-05-05 06:43 | -28.65030 | 26.44926 | 16026 ft | 306 kts | 204° |
| 2026-05-05 06:43 | -28.67079 | 26.44251 | 16030 ft | 307 kts | 204° |
| 2026-05-05 06:43 | -28.69131 | 26.43577 | 16034 ft | 307 kts | 204° |
| 2026-05-05 06:43 | -28.71184 | 26.42900 | 16032 ft | 307 kts | 204° |
| 2026-05-05 06:44 | -28.73239 | 26.42225 | 16031 ft | 307 kts | 204° |
| 2026-05-05 06:44 | -28.75294 | 26.41548 | 16032 ft | 307 kts | 204° |
| 2026-05-05 06:44 | -28.77348 | 26.40872 | 16031 ft | 307 kts | 204° |
| 2026-05-05 06:44 | -28.79403 | 26.40195 | 16043 ft | 308 kts | 204° |
| 2026-05-05 06:45 | -28.81468 | 26.39544 | 16031 ft | 307 kts | 200° |
| 2026-05-05 06:45 | -28.83527 | 26.38941 | 16022 ft | 304 kts | 201° |
| 2026-05-05 06:45 | -28.85567 | 26.38311 | 16020 ft | 303 kts | 202° |
| 2026-05-05 06:45 | -28.87597 | 26.37651 | 16013 ft | 302 kts | 203° |
| 2026-05-05 06:46 | -28.89611 | 26.36977 | 16010 ft | 302 kts | 204° |
| 2026-05-05 06:46 | -28.91628 | 26.36293 | 16018 ft | 303 kts | 204° |
| 2026-05-05 06:46 | -28.93647 | 26.35606 | 16019 ft | 303 kts | 204° |
| 2026-05-05 06:46 | -28.95642 | 26.34927 | 16023 ft | 304 kts | 204° |
| 2026-05-05 06:47 | -28.97669 | 26.34240 | 16022 ft | 304 kts | 204° |
| 2026-05-05 06:47 | -28.99708 | 26.33552 | 16022 ft | 305 kts | 204° |
| 2026-05-05 06:47 | -29.01743 | 26.32867 | 16017 ft | 305 kts | 204° |
| 2026-05-05 06:47 | -29.03786 | 26.32180 | 16018 ft | 305 kts | 204° |
| 2026-05-05 06:48 | -29.05831 | 26.31495 | 16022 ft | 306 kts | 204° |
| 2026-05-05 06:48 | -29.07875 | 26.30814 | 16025 ft | 306 kts | 204° |
| 2026-05-05 06:48 | -29.09917 | 26.30204 | 16020 ft | 309 kts | 200° |
| 2026-05-05 06:48 | -29.12036 | 26.29737 | 16016 ft | 311 kts | 196° |
| 2026-05-05 06:49 | -29.14178 | 26.29360 | 16020 ft | 311 kts | 196° |
| 2026-05-05 06:49 | -29.16320 | 26.28978 | 16018 ft | 312 kts | 196° |
| 2026-05-05 06:49 | -29.18468 | 26.28593 | 16019 ft | 312 kts | 196° |
| 2026-05-05 06:49 | -29.20606 | 26.28208 | 16017 ft | 312 kts | 196° |
| 2026-05-05 06:50 | -29.22754 | 26.27822 | 16017 ft | 312 kts | 196° |
| 2026-05-05 06:50 | -29.24893 | 26.27439 | 16013 ft | 312 kts | 196° |
| 2026-05-05 06:50 | -29.27048 | 26.27053 | 16017 ft | 312 kts | 196° |
| 2026-05-05 06:50 | -29.29196 | 26.26669 | 16018 ft | 312 kts | 196° |
| 2026-05-05 06:51 | -29.31349 | 26.26283 | 16014 ft | 313 kts | 196° |
| 2026-05-05 06:51 | -29.33470 | 26.25904 | 16019 ft | 313 kts | 196° |
| 2026-05-05 06:51 | -29.35625 | 26.25519 | 16028 ft | 314 kts | 197° |
| 2026-05-05 06:51 | -29.37795 | 26.25129 | 16013 ft | 315 kts | 197° |
| 2026-05-05 06:52 | -29.39966 | 26.24741 | 16009 ft | 316 kts | 197° |
| 2026-05-05 06:52 | -29.42146 | 26.24351 | 16007 ft | 317 kts | 197° |
| 2026-05-05 06:52 | -29.44324 | 26.23962 | 16002 ft | 317 kts | 197° |
| 2026-05-05 06:52 | -29.46507 | 26.23572 | 15995 ft | 317 kts | 197° |
| 2026-05-05 06:53 | -29.48685 | 26.23182 | 15998 ft | 317 kts | 197° |
| 2026-05-05 06:53 | -29.50864 | 26.22793 | 16000 ft | 317 kts | 197° |
| 2026-05-05 06:53 | -29.53045 | 26.22403 | 16001 ft | 317 kts | 197° |
| 2026-05-05 06:53 | -29.55201 | 26.22017 | 15998 ft | 317 kts | 197° |
| 2026-05-05 06:54 | -29.57387 | 26.21626 | 15994 ft | 317 kts | 197° |
| 2026-05-05 06:54 | -29.59572 | 26.21234 | 15992 ft | 317 kts | 197° |
| 2026-05-05 06:54 | -29.61753 | 26.20844 | 15998 ft | 317 kts | 197° |
| 2026-05-05 06:54 | -29.63942 | 26.20450 | 15995 ft | 318 kts | 197° |
| 2026-05-05 06:55 | -29.66132 | 26.20057 | 15997 ft | 319 kts | 197° |
| 2026-05-05 06:55 | -29.68300 | 26.19667 | 15992 ft | 319 kts | 197° |
| 2026-05-05 06:55 | -29.70524 | 26.19269 | 15993 ft | 319 kts | 197° |
| 2026-05-05 06:55 | -29.72694 | 26.18878 | 15993 ft | 319 kts | 197° |
| 2026-05-05 06:56 | -29.74899 | 26.18484 | 15985 ft | 319 kts | 197° |
| 2026-05-05 06:56 | -29.77088 | 26.18090 | 15981 ft | 319 kts | 197° |
| 2026-05-05 06:56 | -29.79287 | 26.17694 | 15980 ft | 319 kts | 197° |
| 2026-05-05 06:56 | -29.81463 | 26.17303 | 15976 ft | 319 kts | 197° |
| 2026-05-05 06:57 | -29.83652 | 26.16909 | 15978 ft | 319 kts | 197° |
| 2026-05-05 06:57 | -29.85854 | 26.16512 | 15981 ft | 319 kts | 197° |
| 2026-05-05 06:57 | -29.88047 | 26.16117 | 15991 ft | 319 kts | 197° |
| 2026-05-05 06:57 | -29.90248 | 26.15719 | 15986 ft | 320 kts | 197° |
| 2026-05-05 06:58 | -29.92443 | 26.15322 | 15979 ft | 320 kts | 197° |
| 2026-05-05 06:58 | -29.94650 | 26.14924 | 15970 ft | 320 kts | 197° |
| 2026-05-05 06:58 | -29.96850 | 26.14526 | 15967 ft | 320 kts | 197° |
| 2026-05-05 06:58 | -29.99049 | 26.14129 | 15979 ft | 320 kts | 197° |
| 2026-05-05 06:59 | -30.01249 | 26.13730 | 15983 ft | 320 kts | 197° |
| 2026-05-05 06:59 | -30.03452 | 26.13332 | 15980 ft | 321 kts | 197° |
| 2026-05-05 06:59 | -30.05632 | 26.12937 | 15974 ft | 321 kts | 197° |
| 2026-05-05 06:59 | -30.07836 | 26.12538 | 15969 ft | 321 kts | 197° |
| 2026-05-05 07:00 | -30.10040 | 26.12139 | 15958 ft | 320 kts | 197° |
| 2026-05-05 07:00 | -30.12241 | 26.11739 | 15957 ft | 320 kts | 197° |
| 2026-05-05 07:00 | -30.14446 | 26.11341 | 15981 ft | 320 kts | 197° |
| 2026-05-05 07:00 | -30.16646 | 26.10940 | 15980 ft | 320 kts | 198° |
| 2026-05-05 07:01 | -30.18855 | 26.10539 | 15975 ft | 321 kts | 198° |
| 2026-05-05 07:01 | -30.21065 | 26.10137 | 15966 ft | 321 kts | 198° |
| 2026-05-05 07:01 | -30.23265 | 26.09737 | 15968 ft | 321 kts | 198° |
| 2026-05-05 07:01 | -30.25469 | 26.09336 | 15963 ft | 321 kts | 197° |
| 2026-05-05 07:02 | -30.27674 | 26.08935 | 15968 ft | 321 kts | 198° |
| 2026-05-05 07:02 | -30.29856 | 26.08539 | 15961 ft | 321 kts | 197° |
| 2026-05-05 07:02 | -30.32061 | 26.08137 | 15953 ft | 321 kts | 197° |
| 2026-05-05 07:02 | -30.34264 | 26.07736 | 15946 ft | 320 kts | 198° |
| 2026-05-05 07:03 | -30.36464 | 26.07337 | 15945 ft | 320 kts | 198° |
| 2026-05-05 07:03 | -30.38661 | 26.06937 | 15951 ft | 320 kts | 198° |
| 2026-05-05 07:03 | -30.40858 | 26.06535 | 15953 ft | 320 kts | 198° |
| 2026-05-05 07:03 | -30.43052 | 26.06135 | 15958 ft | 320 kts | 198° |
| 2026-05-05 07:04 | -30.45254 | 26.05731 | 15949 ft | 321 kts | 198° |
| 2026-05-05 07:04 | -30.47464 | 26.05328 | 15950 ft | 321 kts | 198° |
| 2026-05-05 07:04 | -30.49669 | 26.04925 | 15948 ft | 321 kts | 198° |
| 2026-05-05 07:04 | -30.51872 | 26.04522 | 15955 ft | 321 kts | 198° |
| 2026-05-05 07:05 | -30.54081 | 26.04119 | 15958 ft | 321 kts | 198° |
| 2026-05-05 07:05 | -30.56274 | 26.03717 | 15965 ft | 321 kts | 198° |
| 2026-05-05 07:05 | -30.58482 | 26.03313 | 15952 ft | 321 kts | 198° |
| 2026-05-05 07:05 | -30.60664 | 26.02914 | 15940 ft | 321 kts | 198° |
| 2026-05-05 07:06 | -30.62873 | 26.02509 | 15940 ft | 320 kts | 198° |
| 2026-05-05 07:06 | -30.65076 | 26.02105 | 15953 ft | 321 kts | 198° |
| 2026-05-05 07:06 | -30.67280 | 26.01700 | 15965 ft | 321 kts | 198° |
| 2026-05-05 07:06 | -30.69486 | 26.01295 | 15963 ft | 321 kts | 198° |
| 2026-05-05 07:07 | -30.71691 | 26.00891 | 15952 ft | 321 kts | 198° |
| 2026-05-05 07:07 | -30.73894 | 26.00487 | 15951 ft | 320 kts | 198° |
| 2026-05-05 07:07 | -30.76098 | 26.00082 | 15938 ft | 320 kts | 198° |
| 2026-05-05 07:07 | -30.78293 | 25.99679 | 15945 ft | 319 kts | 198° |
| 2026-05-05 07:08 | -30.80488 | 25.99276 | 15946 ft | 319 kts | 198° |
| 2026-05-05 07:08 | -30.82683 | 25.98874 | 15941 ft | 319 kts | 198° |
| 2026-05-05 07:08 | -30.84876 | 25.98468 | 15947 ft | 319 kts | 198° |
| 2026-05-05 07:08 | -30.87071 | 25.98063 | 15948 ft | 319 kts | 198° |
| 2026-05-05 07:09 | -30.89240 | 25.97662 | 15948 ft | 319 kts | 198° |
| 2026-05-05 07:09 | -30.91435 | 25.97258 | 15948 ft | 319 kts | 198° |
| 2026-05-05 07:09 | -30.93630 | 25.96853 | 15949 ft | 319 kts | 198° |
| 2026-05-05 07:09 | -30.95826 | 25.96447 | 15959 ft | 320 kts | 198° |
| 2026-05-05 07:10 | -30.98029 | 25.96039 | 15946 ft | 320 kts | 198° |
| 2026-05-05 07:10 | -31.00222 | 25.95634 | 15942 ft | 320 kts | 198° |
| 2026-05-05 07:10 | -31.02418 | 25.95229 | 15941 ft | 319 kts | 198° |
| 2026-05-05 07:10 | -31.04613 | 25.94823 | 15958 ft | 320 kts | 198° |
| 2026-05-05 07:11 | -31.06819 | 25.94413 | 15957 ft | 321 kts | 198° |
| 2026-05-05 07:11 | -31.09025 | 25.94004 | 15950 ft | 321 kts | 198° |
| 2026-05-05 07:11 | -31.11227 | 25.93596 | 15940 ft | 321 kts | 198° |
| 2026-05-05 07:11 | -31.13430 | 25.93188 | 15940 ft | 320 kts | 198° |
| 2026-05-05 07:12 | -31.15638 | 25.92779 | 15942 ft | 321 kts | 198° |
| 2026-05-05 07:12 | -31.17842 | 25.92370 | 15938 ft | 321 kts | 198° |
| 2026-05-05 07:12 | -31.20047 | 25.91959 | 15940 ft | 321 kts | 198° |
| 2026-05-05 07:12 | -31.22256 | 25.91548 | 15944 ft | 321 kts | 198° |
| 2026-05-05 07:13 | -31.24462 | 25.91139 | 15948 ft | 321 kts | 198° |
| 2026-05-05 07:13 | -31.26670 | 25.90729 | 15946 ft | 321 kts | 198° |
| 2026-05-05 07:13 | -31.28878 | 25.90318 | 15937 ft | 321 kts | 198° |
| 2026-05-05 07:13 | -31.31082 | 25.89908 | 15917 ft | 320 kts | 198° |
| 2026-05-05 07:14 | -31.33286 | 25.89499 | 15921 ft | 320 kts | 198° |
| 2026-05-05 07:14 | -31.35484 | 25.89089 | 15925 ft | 320 kts | 198° |
| 2026-05-05 07:14 | -31.37684 | 25.88678 | 15929 ft | 320 kts | 198° |
| 2026-05-05 07:14 | -31.39891 | 25.88265 | 15921 ft | 321 kts | 198° |
| 2026-05-05 07:15 | -31.42094 | 25.87855 | 15918 ft | 320 kts | 198° |
| 2026-05-05 07:15 | -31.44265 | 25.87450 | 15889 ft | 320 kts | 198° |
| 2026-05-05 07:15 | -31.46461 | 25.87040 | 15929 ft | 320 kts | 198° |
| 2026-05-05 07:15 | -31.48658 | 25.86630 | 15919 ft | 320 kts | 198° |
| 2026-05-05 07:16 | -31.50855 | 25.86218 | 15924 ft | 320 kts | 198° |
| 2026-05-05 07:16 | -31.53052 | 25.85807 | 15921 ft | 320 kts | 198° |
| 2026-05-05 07:16 | -31.55250 | 25.85395 | 15928 ft | 320 kts | 198° |
| 2026-05-05 07:16 | -31.57453 | 25.84983 | 15922 ft | 320 kts | 198° |
| 2026-05-05 07:17 | -31.59652 | 25.84572 | 15921 ft | 320 kts | 198° |
| 2026-05-05 07:17 | -31.61854 | 25.84172 | 15918 ft | 321 kts | 196° |
| 2026-05-05 07:17 | -31.64088 | 25.83903 | 15924 ft | 324 kts | 193° |
| 2026-05-05 07:17 | -31.66342 | 25.83712 | 15920 ft | 324 kts | 192° |
| 2026-05-05 07:18 | -31.68601 | 25.83539 | 15926 ft | 325 kts | 192° |
| 2026-05-05 07:18 | -31.70095 | 25.83422 | 15923 ft | 324 kts | 192° |
| 2026-05-05 07:18 | -31.73111 | 25.83169 | 15934 ft | 324 kts | 192° |
| 2026-05-05 07:18 | -31.75329 | 25.82973 | 15929 ft | 324 kts | 192° |
| 2026-05-05 07:19 | -31.77588 | 25.82765 | 15933 ft | 323 kts | 192° |
| 2026-05-05 07:19 | -31.79068 | 25.82627 | 15932 ft | 323 kts | 192° |
| 2026-05-05 07:19 | -31.82072 | 25.82342 | 15933 ft | 323 kts | 193° |
| 2026-05-05 07:19 | -31.83561 | 25.82200 | 15928 ft | 323 kts | 192° |
| 2026-05-05 07:20 | -31.86552 | 25.81915 | 15920 ft | 322 kts | 192° |
| 2026-05-05 07:20 | -31.88033 | 25.81773 | 15924 ft | 322 kts | 193° |
| 2026-05-05 07:20 | -31.91019 | 25.81484 | 15939 ft | 322 kts | 193° |
| 2026-05-05 07:20 | -31.92499 | 25.81341 | 15944 ft | 322 kts | 193° |
| 2026-05-05 07:21 | -31.95491 | 25.81054 | 15937 ft | 322 kts | 193° |
| 2026-05-05 07:21 | -31.96967 | 25.80912 | 15934 ft | 322 kts | 193° |
| 2026-05-05 07:21 | -31.99929 | 25.80626 | 15950 ft | 322 kts | 192° |
| 2026-05-05 07:21 | -32.01439 | 25.80481 | 15955 ft | 322 kts | 192° |
| 2026-05-05 07:22 | -32.04401 | 25.80196 | 15935 ft | 322 kts | 192° |
| 2026-05-05 07:22 | -32.05880 | 25.80054 | 15933 ft | 322 kts | 192° |
| 2026-05-05 07:22 | -32.08863 | 25.79767 | 15939 ft | 321 kts | 192° |
| 2026-05-05 07:22 | -32.10340 | 25.79624 | 15937 ft | 321 kts | 192° |
| 2026-05-05 07:23 | -32.13319 | 25.79337 | 15958 ft | 321 kts | 192° |
| 2026-05-05 07:23 | -32.14797 | 25.79193 | 15965 ft | 322 kts | 192° |
| 2026-05-05 07:23 | -32.17780 | 25.78904 | 15952 ft | 322 kts | 192° |
| 2026-05-05 07:23 | -32.19259 | 25.78762 | 15952 ft | 322 kts | 192° |
| 2026-05-05 07:24 | -32.22216 | 25.78476 | 15949 ft | 321 kts | 192° |
| 2026-05-05 07:24 | -32.23719 | 25.78330 | 15956 ft | 321 kts | 192° |
| 2026-05-05 07:24 | -32.26673 | 25.78045 | 15951 ft | 321 kts | 192° |
| 2026-05-05 07:24 | -32.28177 | 25.77900 | 15963 ft | 321 kts | 192° |
| 2026-05-05 07:25 | -32.31120 | 25.77615 | 15960 ft | 320 kts | 192° |
| 2026-05-05 07:25 | -32.32593 | 25.77472 | 15964 ft | 320 kts | 192° |
| 2026-05-05 07:25 | -32.35566 | 25.77183 | 15988 ft | 321 kts | 192° |
| 2026-05-05 07:25 | -32.37043 | 25.77039 | 15982 ft | 321 kts | 192° |
| 2026-05-05 07:26 | -32.40025 | 25.76748 | 15990 ft | 322 kts | 192° |
| 2026-05-05 07:26 | -32.41505 | 25.76604 | 15999 ft | 322 kts | 192° |
| 2026-05-05 07:26 | -32.43738 | 25.76387 | 15990 ft | 322 kts | 192° |
| 2026-05-05 07:26 | -32.45972 | 25.76170 | 15984 ft | 322 kts | 192° |
| 2026-05-05 07:27 | -32.48204 | 25.75955 | 15992 ft | 322 kts | 192° |
| 2026-05-05 07:27 | -32.50432 | 25.75739 | 15984 ft | 321 kts | 192° |
| 2026-05-05 07:27 | -32.52660 | 25.75523 | 15985 ft | 320 kts | 192° |
| 2026-05-05 07:27 | -32.54880 | 25.75306 | 15986 ft | 320 kts | 192° |
| 2026-05-05 07:28 | -32.57102 | 25.75090 | 15984 ft | 320 kts | 192° |
| 2026-05-05 07:28 | -32.59319 | 25.74872 | 15980 ft | 319 kts | 192° |
| 2026-05-05 07:28 | -32.61504 | 25.74659 | 15981 ft | 319 kts | 192° |
| 2026-05-05 07:28 | -32.63717 | 25.74443 | 15980 ft | 319 kts | 192° |
| 2026-05-05 07:29 | -32.65929 | 25.74227 | 15989 ft | 319 kts | 192° |
| 2026-05-05 07:29 | -32.68142 | 25.74010 | 16001 ft | 319 kts | 192° |
| 2026-05-05 07:29 | -32.70357 | 25.73792 | 16023 ft | 320 kts | 192° |
| 2026-05-05 07:29 | -32.72576 | 25.73576 | 16017 ft | 320 kts | 192° |
| 2026-05-05 07:30 | -32.74077 | 25.73428 | 16014 ft | 320 kts | 192° |
| 2026-05-05 07:30 | -32.79235 | 25.72925 | 15985 ft | 319 kts | 192° |
| 2026-05-05 07:30 | -32.81450 | 25.72709 | 15990 ft | 319 kts | 192° |
| 2026-05-05 07:31 | -32.83662 | 25.72492 | 15983 ft | 319 kts | 192° |
| 2026-05-05 07:31 | -32.85872 | 25.72274 | 15984 ft | 319 kts | 192° |
| 2026-05-05 07:31 | -32.88082 | 25.72057 | 15983 ft | 319 kts | 192° |
| 2026-05-05 07:31 | -32.90292 | 25.71840 | 15992 ft | 319 kts | 192° |
| 2026-05-05 07:32 | -32.92503 | 25.71622 | 16004 ft | 319 kts | 192° |
| 2026-05-05 07:32 | -32.94720 | 25.71404 | 16000 ft | 319 kts | 192° |
| 2026-05-05 07:32 | -32.96904 | 25.71189 | 16007 ft | 319 kts | 192° |
| 2026-05-05 07:32 | -32.99120 | 25.70971 | 16016 ft | 319 kts | 191° |
| 2026-05-05 07:33 | -33.01335 | 25.70753 | 16013 ft | 319 kts | 191° |
| 2026-05-05 07:33 | -33.03553 | 25.70535 | 16000 ft | 319 kts | 191° |
| 2026-05-05 07:33 | -33.05769 | 25.70317 | 15993 ft | 319 kts | 191° |
| 2026-05-05 07:33 | -33.07983 | 25.70099 | 15988 ft | 318 kts | 191° |
| 2026-05-05 07:34 | -33.10188 | 25.69882 | 15988 ft | 318 kts | 191° |
| 2026-05-05 07:34 | -33.12392 | 25.69664 | 15991 ft | 318 kts | 191° |
| 2026-05-05 07:34 | -33.14595 | 25.69447 | 15993 ft | 318 kts | 191° |
| 2026-05-05 07:34 | -33.16801 | 25.69228 | 15986 ft | 317 kts | 191° |
| 2026-05-05 07:35 | -33.18973 | 25.69015 | 15966 ft | 317 kts | 191° |
| 2026-05-05 07:35 | -33.21179 | 25.68794 | 15730 ft | 320 kts | 191° |
| 2026-05-05 07:35 | -33.23404 | 25.68572 | 15494 ft | 322 kts | 191° |
| 2026-05-05 07:35 | -33.25642 | 25.68349 | 15262 ft | 322 kts | 191° |
| 2026-05-05 07:36 | -33.27872 | 25.68130 | 15027 ft | 318 kts | 190° |
| 2026-05-05 07:36 | -33.30022 | 25.67924 | 14784 ft | 306 kts | 190° |
| 2026-05-05 07:36 | -33.32123 | 25.67722 | 14450 ft | 300 kts | 191° |
| 2026-05-05 07:36 | -33.34195 | 25.67516 | 14131 ft | 296 kts | 190° |
| 2026-05-05 07:37 | -33.36241 | 25.67312 | 13797 ft | 294 kts | 190° |
| 2026-05-05 07:37 | -33.38275 | 25.67109 | 13391 ft | 292 kts | 190° |
| 2026-05-05 07:37 | -33.40276 | 25.66908 | 12989 ft | 291 kts | 189° |
| 2026-05-05 07:37 | -33.42292 | 25.66705 | 12594 ft | 289 kts | 189° |
| 2026-05-05 07:38 | -33.44290 | 25.66506 | 12205 ft | 287 kts | 188° |
| 2026-05-05 07:38 | -33.46274 | 25.66308 | 11831 ft | 285 kts | 188° |
| 2026-05-05 07:38 | -33.48237 | 25.66113 | 11461 ft | 280 kts | 187° |
| 2026-05-05 07:38 | -33.50167 | 25.65921 | 11080 ft | 277 kts | 187° |
| 2026-05-05 07:39 | -33.52085 | 25.65729 | 10707 ft | 275 kts | 186° |
| 2026-05-05 07:39 | -33.53988 | 25.65538 | 10337 ft | 273 kts | 186° |
| 2026-05-05 07:39 | -33.55869 | 25.65351 | 9974 ft | 271 kts | 186° |
| 2026-05-05 07:39 | -33.57740 | 25.65151 | 9580 ft | 267 kts | 188° |
| 2026-05-05 07:40 | -33.59548 | 25.64720 | 9184 ft | 262 kts | 194° |
| 2026-05-05 07:40 | -33.61285 | 25.64240 | 8805 ft | 257 kts | 193° |
| 2026-05-05 07:40 | -33.63009 | 25.63762 | 8455 ft | 253 kts | 193° |
| 2026-05-05 07:40 | -33.64709 | 25.63292 | 8077 ft | 250 kts | 193° |
| 2026-05-05 07:41 | -33.66412 | 25.62818 | 7707 ft | 252 kts | 193° |
| 2026-05-05 07:41 | -33.68129 | 25.62342 | 7336 ft | 253 kts | 193° |
| 2026-05-05 07:41 | -33.69840 | 25.61867 | 6969 ft | 252 kts | 193° |
| 2026-05-05 07:41 | -33.71540 | 25.61394 | 6623 ft | 251 kts | 193° |
| 2026-05-05 07:42 | -33.73242 | 25.60920 | 6272 ft | 249 kts | 193° |
| 2026-05-05 07:42 | -33.74934 | 25.60448 | 5778 ft | 250 kts | 192° |
| 2026-05-05 07:42 | -33.76627 | 25.59977 | 5286 ft | 248 kts | 192° |
| 2026-05-05 07:42 | -33.78286 | 25.59514 | 4794 ft | 240 kts | 192° |
| 2026-05-05 07:43 | -33.79879 | 25.59069 | 4311 ft | 231 kts | 192° |
| 2026-05-05 07:43 | -33.81402 | 25.58643 | 3918 ft | 223 kts | 192° |
| 2026-05-05 07:43 | -33.82896 | 25.58225 | 3569 ft | 218 kts | 192° |
| 2026-05-05 07:43 | -33.84358 | 25.57817 | 3224 ft | 214 kts | 193° |
| 2026-05-05 07:44 | -33.85797 | 25.57415 | 2865 ft | 211 kts | 193° |
| 2026-05-05 07:44 | -33.87222 | 25.57016 | 2512 ft | 209 kts | 194° |
| 2026-05-05 07:44 | -33.88632 | 25.56621 | 2151 ft | 207 kts | 194° |
| 2026-05-05 07:44 | -33.89977 | 25.56249 | 1862 ft | 195 kts | 194° |
| 2026-05-05 07:45 | -33.91137 | 25.56261 | 2260 ft | 159 kts | 159° |
| 2026-05-05 07:45 | -33.91931 | 25.57333 | 2224 ft | 194 kts | 119° |
| 2026-05-05 07:45 | -33.92298 | 25.58969 | 2112 ft | 209 kts | 102° |
| 2026-05-05 07:45 | -33.92415 | 25.60754 | 1972 ft | 217 kts | 89° |
| 2026-05-05 07:46 | -33.92306 | 25.62571 | 1869 ft | 218 kts | 97° |
| 2026-05-05 07:46 | -33.92874 | 25.64223 | 1776 ft | 221 kts | 133° |
| 2026-05-05 07:46 | -33.94114 | 25.65240 | 1289 ft | 208 kts | 165° |
| 2026-05-05 07:46 | -33.95444 | 25.65223 | 974 ft | 187 kts | 200° |
| 2026-05-05 07:47 | -33.96414 | 25.64655 | 817 ft | 126 kts | 217° |
| 2026-05-05 07:47 | -33.97064 | 25.64085 | 688 ft | 103 kts | 225° |
| 2026-05-05 07:47 | -33.97542 | 25.63503 | 551 ft | 96 kts | 234° |
| 2026-05-05 07:47 | -33.97914 | 25.62857 | 474 ft | 93 kts | 241° |
| 2026-05-05 07:48 | -33.98243 | 25.62207 | 358 ft | 84 kts | 238° |
| 2026-05-05 07:48 | -33.98511 | 25.61682 | 234 ft | 64 kts | 236° |
| 2026-05-05 07:48 | -33.98663 | 25.61388 | 232 ft | 32 kts | 238° |
| 2026-05-05 07:48 | -33.98801 | 25.61125 | 234 ft | 28 kts | 237° |
| 2026-05-05 07:49 | -33.98755 | 25.60969 | 231 ft | 27 kts | 326° |
| 2026-05-05 07:49 | -33.98634 | 25.60855 | 231 ft | 19 kts | 283° |
| 2026-05-05 07:49 | -33.98646 | 25.60811 | 231 ft | 0 kts | 238° |